sensor_id;sensor_type;location;lat;lon;timestamp;pressure;altitude;pressure_sealevel;temperature;humidity
13954;BME280;7049;49.444;8.522;2022-12-11T00:02:43;79224.50;;;-3.47;86.79
13954;BME280;7049;49.444;8.522;2022-12-11T00:07:46;79228.69;;;-3.47;87.04
13954;BME280;7049;49.444;8.522;2022-12-11T00:12:48;79226.59;;;-3.47;87.66
13954;BME280;7049;49.444;8.522;2022-12-11T00:17:49;79230.78;;;-3.47;88.30
13954;BME280;7049;49.444;8.522;2022-12-11T00:22:52;79224.50;;;-3.47;88.21
13954;BME280;7049;49.444;8.522;2022-12-11T00:27:53;79216.13;;;-3.47;88.40
13954;BME280;7049;49.444;8.522;2022-12-11T00:32:55;79224.50;;;-3.47;88.70
13954;BME280;7049;49.444;8.522;2022-12-11T00:37:58;79214.03;;;-3.47;89.10
13954;BME280;7049;49.444;8.522;2022-12-11T00:42:59;79203.56;;;-3.47;89.47
13954;BME280;7049;49.444;8.522;2022-12-11T00:48:01;79193.09;;;-3.47;89.47
13954;BME280;7049;49.444;8.522;2022-12-11T00:53:05;79186.81;;;-3.47;89.90
13954;BME280;7049;49.444;8.522;2022-12-11T00:58:06;79182.63;;;-3.47;90.23
13954;BME280;7049;49.444;8.522;2022-12-11T01:03:09;79174.25;;;-3.47;90.63
13954;BME280;7049;49.444;8.522;2022-12-11T01:08:12;79170.06;;;-3.47;90.55
13954;BME280;7049;49.444;8.522;2022-12-11T01:13:14;79165.88;;;-3.47;90.71
13954;BME280;7049;49.444;8.522;2022-12-11T01:18:16;79155.41;;;-3.47;91.01
13954;BME280;7049;49.444;8.522;2022-12-11T01:23:19;79149.13;;;-3.47;91.41
13954;BME280;7049;49.444;8.522;2022-12-11T01:28:20;79147.06;;;-3.47;91.57
13954;BME280;7049;49.444;8.522;2022-12-11T01:33:21;79142.88;;;-3.47;91.87
13954;BME280;7049;49.444;8.522;2022-12-11T01:38:24;79140.75;;;-3.47;91.89
13954;BME280;7049;49.444;8.522;2022-12-11T01:43:26;79144.97;;;-3.47;92.16
13954;BME280;7049;49.444;8.522;2022-12-11T01:48:29;79138.69;;;-3.47;92.17
13954;BME280;7049;49.444;8.522;2022-12-11T01:53:35;79130.31;;;-3.47;92.25
13954;BME280;7049;49.444;8.522;2022-12-11T01:58:39;79128.22;;;-3.47;92.63
13954;BME280;7049;49.444;8.522;2022-12-11T02:03:41;79115.66;;;-3.47;92.67
13954;BME280;7049;49.444;8.522;2022-12-11T02:08:44;79124.03;;;-3.47;92.40
13954;BME280;7049;49.444;8.522;2022-12-11T02:13:51;79149.13;;;-3.47;92.77
13954;BME280;7049;49.444;8.522;2022-12-11T02:19:00;79149.13;;;-3.47;92.10
13954;BME280;7049;49.444;8.522;2022-12-11T02:24:19;79149.13;;;-3.47;92.21
13954;BME280;7049;49.444;8.522;2022-12-11T02:29:29;79161.69;;;-3.47;92.08
13954;BME280;7049;49.444;8.522;2022-12-11T02:34:37;79161.69;;;-3.47;91.95
13954;BME280;7049;49.444;8.522;2022-12-11T02:39:42;79157.50;;;-3.47;92.01
13954;BME280;7049;49.444;8.522;2022-12-11T02:44:47;79163.78;;;-3.47;92.11
13954;BME280;7049;49.444;8.522;2022-12-11T02:49:51;79151.22;;;-3.47;92.79
13954;BME280;7049;49.444;8.522;2022-12-11T02:54:57;79147.06;;;-3.47;92.42
13954;BME280;7049;49.444;8.522;2022-12-11T03:00:01;79153.31;;;-3.47;92.62
13954;BME280;7049;49.444;8.522;2022-12-11T03:05:03;79149.13;;;-3.47;92.30
13954;BME280;7049;49.444;8.522;2022-12-11T03:10:07;79157.50;;;-3.47;92.50
13954;BME280;7049;49.444;8.522;2022-12-11T03:15:13;79153.31;;;-3.47;92.49
13954;BME280;7049;49.444;8.522;2022-12-11T03:20:20;79157.50;;;-3.47;92.47
13954;BME280;7049;49.444;8.522;2022-12-11T03:25:31;79157.50;;;-3.47;92.54
13954;BME280;7049;49.444;8.522;2022-12-11T03:30:37;79161.69;;;-3.47;92.51
13954;BME280;7049;49.444;8.522;2022-12-11T03:35:42;79157.50;;;-3.47;92.62
13954;BME280;7049;49.444;8.522;2022-12-11T03:40:48;79153.31;;;-3.47;92.49
13954;BME280;7049;49.444;8.522;2022-12-11T03:45:52;79149.13;;;-3.47;92.41
13954;BME280;7049;49.444;8.522;2022-12-11T03:50:54;79161.69;;;-3.47;92.35
13954;BME280;7049;49.444;8.522;2022-12-11T03:55:57;79165.88;;;-3.47;92.70
13954;BME280;7049;49.444;8.522;2022-12-11T04:01:02;79153.31;;;-3.47;92.86
13954;BME280;7049;49.444;8.522;2022-12-11T04:06:03;79149.13;;;-3.47;93.19
13954;BME280;7049;49.444;8.522;2022-12-11T04:11:05;79140.75;;;-3.47;93.61
13954;BME280;7049;49.444;8.522;2022-12-11T04:16:25;79140.75;;;-3.47;94.08
13954;BME280;7049;49.444;8.522;2022-12-11T04:21:27;79142.88;;;-3.47;94.62
13954;BME280;7049;49.444;8.522;2022-12-11T04:26:46;79134.50;;;-3.47;94.85
13954;BME280;7049;49.444;8.522;2022-12-11T04:31:49;79128.22;;;-3.47;95.08
13954;BME280;7049;49.444;8.522;2022-12-11T04:36:51;79128.22;;;-3.47;95.16
13954;BME280;7049;49.444;8.522;2022-12-11T04:41:52;79124.03;;;-3.47;95.55
13954;BME280;7049;49.444;8.522;2022-12-11T04:46:55;79107.28;;;-3.47;95.57
13954;BME280;7049;49.444;8.522;2022-12-11T04:51:56;79109.38;;;-3.47;95.41
13954;BME280;7049;49.444;8.522;2022-12-11T04:56:58;79101.00;;;-3.47;95.55
13954;BME280;7049;49.444;8.522;2022-12-11T05:02:00;79101.00;;;-3.47;95.61
13954;BME280;7049;49.444;8.522;2022-12-11T05:07:02;79103.09;;;-3.47;96.06
13954;BME280;7049;49.444;8.522;2022-12-11T05:12:03;79086.34;;;-3.47;96.15
13954;BME280;7049;49.444;8.522;2022-12-11T05:17:06;79090.53;;;-3.47;95.96
13954;BME280;7049;49.444;8.522;2022-12-11T05:22:08;79082.16;;;-3.47;96.09
13954;BME280;7049;49.444;8.522;2022-12-11T05:27:09;79077.97;;;-3.47;96.39
13954;BME280;7049;49.444;8.522;2022-12-11T05:32:12;79080.06;;;-3.47;96.27
13954;BME280;7049;49.444;8.522;2022-12-11T05:37:15;79082.16;;;-3.47;96.39
13954;BME280;7049;49.444;8.522;2022-12-11T05:42:16;79082.16;;;-3.47;96.59
13954;BME280;7049;49.444;8.522;2022-12-11T05:47:19;79073.78;;;-3.47;96.21
13954;BME280;7049;49.444;8.522;2022-12-11T05:52:20;79073.78;;;-3.47;96.58
13954;BME280;7049;49.444;8.522;2022-12-11T05:57:22;79077.97;;;-3.47;96.57
13954;BME280;7049;49.444;8.522;2022-12-11T06:02:24;79073.78;;;-3.47;97.11
13954;BME280;7049;49.444;8.522;2022-12-11T06:07:26;79069.59;;;-3.47;97.62
13954;BME280;7049;49.444;8.522;2022-12-11T06:12:28;79073.78;;;-3.47;96.96
13954;BME280;7049;49.444;8.522;2022-12-11T06:17:32;79065.41;;;-3.47;96.10
13954;BME280;7049;49.444;8.522;2022-12-11T06:22:34;79065.41;;;-3.47;95.84
13954;BME280;7049;49.444;8.522;2022-12-11T06:27:35;79069.59;;;-3.47;96.13
13954;BME280;7049;49.444;8.522;2022-12-11T06:32:38;79065.41;;;-3.47;96.11
13954;BME280;7049;49.444;8.522;2022-12-11T06:37:39;79069.59;;;-3.47;95.80
13954;BME280;7049;49.444;8.522;2022-12-11T06:42:41;79080.06;;;-3.47;94.92
13954;BME280;7049;49.444;8.522;2022-12-11T06:47:44;79080.06;;;-3.47;95.25
13954;BME280;7049;49.444;8.522;2022-12-11T06:52:45;79073.78;;;-3.47;94.92
13954;BME280;7049;49.444;8.522;2022-12-11T06:57:47;79082.16;;;-3.47;94.96
13954;BME280;7049;49.444;8.522;2022-12-11T07:02:50;79090.53;;;-3.47;95.44
13954;BME280;7049;49.444;8.522;2022-12-11T07:07:52;79080.06;;;-3.47;95.79
13954;BME280;7049;49.444;8.522;2022-12-11T07:12:54;79084.25;;;-3.47;95.67
13954;BME280;7049;49.444;8.522;2022-12-11T07:17:57;79082.16;;;-3.47;95.39
13954;BME280;7049;49.444;8.522;2022-12-11T07:22:58;79096.81;;;-3.47;94.79
13954;BME280;7049;49.444;8.522;2022-12-11T07:28:00;79088.44;;;-3.47;94.96
13954;BME280;7049;49.444;8.522;2022-12-11T07:33:02;79103.09;;;-3.47;94.77
13954;BME280;7049;49.444;8.522;2022-12-11T07:38:04;79103.09;;;-3.47;94.66
13954;BME280;7049;49.444;8.522;2022-12-11T07:43:06;79115.66;;;-3.47;94.42
13954;BME280;7049;49.444;8.522;2022-12-11T07:48:09;79111.47;;;-3.47;94.01
13954;BME280;7049;49.444;8.522;2022-12-11T07:53:11;79121.94;;;-3.47;93.73
13954;BME280;7049;49.444;8.522;2022-12-11T07:58:13;79119.84;;;-3.47;93.48
13954;BME280;7049;49.444;8.522;2022-12-11T08:03:16;79113.56;;;-3.47;93.78
13954;BME280;7049;49.444;8.522;2022-12-11T08:08:18;79098.91;;;-3.47;93.78
13954;BME280;7049;49.444;8.522;2022-12-11T08:13:19;79109.38;;;-3.47;93.70
13954;BME280;7049;49.444;8.522;2022-12-11T08:18:22;79101.00;;;-3.47;94.16
13954;BME280;7049;49.444;8.522;2022-12-11T08:23:24;79096.81;;;-3.47;94.22
13954;BME280;7049;49.444;8.522;2022-12-11T08:28:25;79077.97;;;-3.47;94.71
13954;BME280;7049;49.444;8.522;2022-12-11T08:33:28;79067.50;;;-3.47;94.64
13954;BME280;7049;49.444;8.522;2022-12-11T08:38:30;79065.41;;;-3.47;94.33
13954;BME280;7049;49.444;8.522;2022-12-11T08:43:32;79071.69;;;-3.47;94.52
13954;BME280;7049;49.444;8.522;2022-12-11T08:48:36;79061.22;;;-3.47;94.95
13954;BME280;7049;49.444;8.522;2022-12-11T08:53:38;79046.56;;;-3.47;94.82
13954;BME280;7049;49.444;8.522;2022-12-11T08:58:40;79036.09;;;-3.47;94.74
13954;BME280;7049;49.444;8.522;2022-12-11T09:03:42;79031.91;;;-3.47;94.73
13954;BME280;7049;49.444;8.522;2022-12-11T09:08:45;79015.19;;;-3.47;95.55
13954;BME280;7049;49.444;8.522;2022-12-11T09:13:47;79019.34;;;-3.47;95.41
13954;BME280;7049;49.444;8.522;2022-12-11T09:18:53;79013.09;;;-3.47;95.60
13954;BME280;7049;49.444;8.522;2022-12-11T09:23:56;79000.53;;;-3.47;95.53
13954;BME280;7049;49.444;8.522;2022-12-11T09:29:02;78998.44;;;-3.47;95.77
13954;BME280;7049;49.444;8.522;2022-12-11T09:34:06;78996.34;;;-3.47;95.92
13954;BME280;7049;49.444;8.522;2022-12-11T09:39:10;78990.06;;;-3.47;95.77
13954;BME280;7049;49.444;8.522;2022-12-11T09:44:20;78983.78;;;-3.47;95.55
13954;BME280;7049;49.444;8.522;2022-12-11T09:49:33;78973.31;;;-3.47;95.34
13954;BME280;7049;49.444;8.522;2022-12-11T09:54:43;78969.13;;;-3.47;95.65
13954;BME280;7049;49.444;8.522;2022-12-11T09:59:56;78964.94;;;-3.47;95.91
13954;BME280;7049;49.444;8.522;2022-12-11T10:05:12;78952.38;;;-3.47;95.63
13954;BME280;7049;49.444;8.522;2022-12-11T10:10:28;78939.81;;;-3.47;95.73
13954;BME280;7049;49.444;8.522;2022-12-11T10:15:38;78935.63;;;-3.47;95.48
13954;BME280;7049;49.444;8.522;2022-12-11T10:20:42;78933.53;;;-3.47;95.66
13954;BME280;7049;49.444;8.522;2022-12-11T10:25:48;78920.97;;;-3.47;95.57
13954;BME280;7049;49.444;8.522;2022-12-11T10:30:56;78906.31;;;-3.47;95.48
13954;BME280;7049;49.444;8.522;2022-12-11T10:36:06;78895.88;;;-3.47;95.79
13954;BME280;7049;49.444;8.522;2022-12-11T10:41:11;78887.50;;;-3.47;95.77
13954;BME280;7049;49.444;8.522;2022-12-11T10:46:15;78885.41;;;-3.47;95.48
13954;BME280;7049;49.444;8.522;2022-12-11T10:51:20;78881.22;;;-3.47;95.53
13954;BME280;7049;49.444;8.522;2022-12-11T10:56:26;78864.47;;;-3.47;95.52
13954;BME280;7049;49.444;8.522;2022-12-11T11:01:30;78860.28;;;-3.47;95.09
13954;BME280;7049;49.444;8.522;2022-12-11T11:06:33;78849.81;;;-3.47;94.92
13954;BME280;7049;49.444;8.522;2022-12-11T11:11:36;78843.53;;;-3.47;95.01
13954;BME280;7049;49.444;8.522;2022-12-11T11:16:40;78839.34;;;-3.47;95.04
13954;BME280;7049;49.444;8.522;2022-12-11T11:21:48;78833.06;;;-3.47;94.99
13954;BME280;7049;49.444;8.522;2022-12-11T11:26:51;78822.59;;;-3.47;94.77
13954;BME280;7049;49.444;8.522;2022-12-11T11:31:53;78812.13;;;-3.47;94.47
13954;BME280;7049;49.444;8.522;2022-12-11T11:36:57;78807.94;;;-3.47;94.36
13954;BME280;7049;49.444;8.522;2022-12-11T11:42:10;78805.84;;;-3.47;94.40
13954;BME280;7049;49.444;8.522;2022-12-11T11:47:18;78797.50;;;-3.47;94.16
13954;BME280;7049;49.444;8.522;2022-12-11T11:52:26;78789.13;;;-3.47;94.17
13954;BME280;7049;49.444;8.522;2022-12-11T11:57:34;78780.75;;;-3.47;93.97
13954;BME280;7049;49.444;8.522;2022-12-11T12:02:40;78776.56;;;-3.47;93.60
13954;BME280;7049;49.444;8.522;2022-12-11T12:07:47;78772.38;;;-3.47;93.25
13954;BME280;7049;49.444;8.522;2022-12-11T12:12:57;78768.19;;;-3.47;93.06
13954;BME280;7049;49.444;8.522;2022-12-11T12:18:10;78764.00;;;-3.47;93.25
13954;BME280;7049;49.444;8.522;2022-12-11T12:23:27;78761.91;;;-3.47;92.70
13954;BME280;7049;49.444;8.522;2022-12-11T12:28:39;78753.53;;;-3.47;92.89
13954;BME280;7049;49.444;8.522;2022-12-11T12:33:52;78751.44;;;-3.47;92.67
13954;BME280;7049;49.444;8.522;2022-12-11T12:39:02;78745.16;;;-3.47;92.68
13954;BME280;7049;49.444;8.522;2022-12-11T12:44:12;78738.88;;;-3.47;92.28
13954;BME280;7049;49.444;8.522;2022-12-11T12:49:16;78730.50;;;-3.47;92.20
13954;BME280;7049;49.444;8.522;2022-12-11T12:54:21;78724.22;;;-3.47;91.81
13954;BME280;7049;49.444;8.522;2022-12-11T12:59:26;78713.75;;;-3.47;92.24
13954;BME280;7049;49.444;8.522;2022-12-11T13:04:35;78709.56;;;-3.47;91.39
13954;BME280;7049;49.444;8.522;2022-12-11T13:09:38;78705.41;;;-3.47;90.84
13954;BME280;7049;49.444;8.522;2022-12-11T13:14:40;78701.22;;;-3.47;91.05
13954;BME280;7049;49.444;8.522;2022-12-11T13:19:41;78707.47;;;-3.47;90.86
13954;BME280;7049;49.444;8.522;2022-12-11T13:24:46;78709.56;;;-3.47;90.23
13954;BME280;7049;49.444;8.522;2022-12-11T13:29:49;78701.22;;;-3.47;90.30
13954;BME280;7049;49.444;8.522;2022-12-11T13:34:52;78713.75;;;-3.47;89.74
13954;BME280;7049;49.444;8.522;2022-12-11T13:39:57;78720.03;;;-3.47;89.52
13954;BME280;7049;49.444;8.522;2022-12-11T13:44:59;78722.13;;;-3.47;89.88
13954;BME280;7049;49.444;8.522;2022-12-11T13:50:12;78722.13;;;-3.47;89.76
13954;BME280;7049;49.444;8.522;2022-12-11T13:55:22;78726.31;;;-3.47;89.80
13954;BME280;7049;49.444;8.522;2022-12-11T14:00:26;78730.50;;;-3.47;89.79
13954;BME280;7049;49.444;8.522;2022-12-11T14:05:29;78734.69;;;-3.47;89.90
13954;BME280;7049;49.444;8.522;2022-12-11T14:10:32;78736.78;;;-3.47;89.53
13954;BME280;7049;49.444;8.522;2022-12-11T14:15:35;78740.97;;;-3.47;88.67
13954;BME280;7049;49.444;8.522;2022-12-11T14:20:37;78738.88;;;-3.47;88.87
13954;BME280;7049;49.444;8.522;2022-12-11T14:25:40;78743.06;;;-3.47;88.93
13954;BME280;7049;49.444;8.522;2022-12-11T14:30:46;78745.16;;;-3.47;88.67
13954;BME280;7049;49.444;8.522;2022-12-11T14:35:48;78745.16;;;-3.47;88.53
13954;BME280;7049;49.444;8.522;2022-12-11T14:40:54;78753.53;;;-3.47;88.38
13954;BME280;7049;49.444;8.522;2022-12-11T14:46:00;78757.72;;;-3.47;88.85
13954;BME280;7049;49.444;8.522;2022-12-11T14:51:04;78761.91;;;-3.47;89.03
13954;BME280;7049;49.444;8.522;2022-12-11T14:56:15;78768.19;;;-3.47;88.52
13954;BME280;7049;49.444;8.522;2022-12-11T15:01:23;78772.38;;;-3.47;88.46
13954;BME280;7049;49.444;8.522;2022-12-11T15:06:27;78768.19;;;-3.47;89.03
13954;BME280;7049;49.444;8.522;2022-12-11T15:11:31;78772.38;;;-3.47;89.22
13954;BME280;7049;49.444;8.522;2022-12-11T15:16:36;78772.38;;;-3.47;89.07
13954;BME280;7049;49.444;8.522;2022-12-11T15:21:38;78778.66;;;-3.47;89.74
13954;BME280;7049;49.444;8.522;2022-12-11T15:26:44;78789.13;;;-3.47;89.96
13954;BME280;7049;49.444;8.522;2022-12-11T15:31:46;78789.13;;;-3.47;89.98
13954;BME280;7049;49.444;8.522;2022-12-11T15:36:47;78784.94;;;-3.47;90.12
13954;BME280;7049;49.444;8.522;2022-12-11T15:41:50;78789.13;;;-3.47;90.33
13954;BME280;7049;49.444;8.522;2022-12-11T15:46:51;78793.31;;;-3.47;90.66
13954;BME280;7049;49.444;8.522;2022-12-11T15:51:53;78801.69;;;-3.47;90.79
13954;BME280;7049;49.444;8.522;2022-12-11T15:57:03;78807.94;;;-3.47;91.04
13954;BME280;7049;49.444;8.522;2022-12-11T16:02:09;78801.69;;;-3.47;91.45
13954;BME280;7049;49.444;8.522;2022-12-11T16:07:14;78810.03;;;-3.47;91.57
13954;BME280;7049;49.444;8.522;2022-12-11T16:12:18;78805.84;;;-3.47;91.87
13954;BME280;7049;49.444;8.522;2022-12-11T16:17:19;78807.94;;;-3.47;92.03
13954;BME280;7049;49.444;8.522;2022-12-11T16:22:21;78810.03;;;-3.47;92.18
13954;BME280;7049;49.444;8.522;2022-12-11T16:27:24;78810.03;;;-3.47;92.09
13954;BME280;7049;49.444;8.522;2022-12-11T16:32:25;78805.84;;;-3.47;91.78
13954;BME280;7049;49.444;8.522;2022-12-11T16:37:27;78801.69;;;-3.47;91.87
13954;BME280;7049;49.444;8.522;2022-12-11T16:42:29;78801.69;;;-3.47;92.08
13954;BME280;7049;49.444;8.522;2022-12-11T16:47:31;78791.22;;;-3.47;92.89
13954;BME280;7049;49.444;8.522;2022-12-11T16:52:33;78770.28;;;-3.47;92.25
13954;BME280;7049;49.444;8.522;2022-12-11T16:57:36;78747.25;;;-3.47;91.03
13954;BME280;7049;49.444;8.522;2022-12-11T17:02:38;78743.06;;;-3.47;90.07
13954;BME280;7049;49.444;8.522;2022-12-11T17:07:39;78753.53;;;-3.47;89.68
13954;BME280;7049;49.444;8.522;2022-12-11T17:12:42;78772.38;;;-3.47;90.04
13954;BME280;7049;49.444;8.522;2022-12-11T17:17:43;78774.47;;;-3.47;90.36
13954;BME280;7049;49.444;8.522;2022-12-11T17:22:45;78782.84;;;-3.47;90.85
13954;BME280;7049;49.444;8.522;2022-12-11T17:27:48;78780.75;;;-3.47;91.58
13954;BME280;7049;49.444;8.522;2022-12-11T17:32:49;78778.66;;;-3.47;91.97
13954;BME280;7049;49.444;8.522;2022-12-11T17:37:51;78789.13;;;-3.47;92.02
13954;BME280;7049;49.444;8.522;2022-12-11T17:42:54;78793.31;;;-3.47;92.25
13954;BME280;7049;49.444;8.522;2022-12-11T17:47:55;78801.69;;;-3.47;92.54
13954;BME280;7049;49.444;8.522;2022-12-11T17:52:57;78789.13;;;-3.47;92.71
13954;BME280;7049;49.444;8.522;2022-12-11T17:57:59;78793.31;;;-3.47;92.91
13954;BME280;7049;49.444;8.522;2022-12-11T18:03:01;78793.31;;;-3.47;93.29
13954;BME280;7049;49.444;8.522;2022-12-11T18:08:02;78784.94;;;-3.47;93.12
13954;BME280;7049;49.444;8.522;2022-12-11T18:13:05;78791.22;;;-3.47;93.38
13954;BME280;7049;49.444;8.522;2022-12-11T18:18:07;78795.41;;;-3.47;93.35
13954;BME280;7049;49.444;8.522;2022-12-11T18:23:09;78793.31;;;-3.47;93.16
13954;BME280;7049;49.444;8.522;2022-12-11T18:28:12;78801.69;;;-3.47;92.97
13954;BME280;7049;49.444;8.522;2022-12-11T18:33:13;78801.69;;;-3.47;92.96
13954;BME280;7049;49.444;8.522;2022-12-11T18:38:15;78803.78;;;-3.47;93.11
13954;BME280;7049;49.444;8.522;2022-12-11T18:43:18;78801.69;;;-3.47;92.58
13954;BME280;7049;49.444;8.522;2022-12-11T18:48:19;78814.22;;;-3.47;92.47
13954;BME280;7049;49.444;8.522;2022-12-11T18:53:21;78814.22;;;-3.47;92.76
13954;BME280;7049;49.444;8.522;2022-12-11T18:58:23;78810.03;;;-3.47;92.62
13954;BME280;7049;49.444;8.522;2022-12-11T19:03:25;78814.22;;;-3.47;93.16
13954;BME280;7049;49.444;8.522;2022-12-11T19:08:26;78818.41;;;-3.47;92.95
13954;BME280;7049;49.444;8.522;2022-12-11T19:13:29;78818.41;;;-3.47;93.49
13954;BME280;7049;49.444;8.522;2022-12-11T19:18:31;78820.50;;;-3.47;93.69
13954;BME280;7049;49.444;8.522;2022-12-11T19:23:32;78810.03;;;-3.47;94.03
13954;BME280;7049;49.444;8.522;2022-12-11T19:28:35;78807.94;;;-3.47;93.94
13954;BME280;7049;49.444;8.522;2022-12-11T19:33:37;78812.13;;;-3.47;94.30
13954;BME280;7049;49.444;8.522;2022-12-11T19:38:39;78807.94;;;-3.47;94.34
13954;BME280;7049;49.444;8.522;2022-12-11T19:43:43;78807.94;;;-3.47;94.03
13954;BME280;7049;49.444;8.522;2022-12-11T19:48:47;78807.94;;;-3.47;94.36
13954;BME280;7049;49.444;8.522;2022-12-11T19:53:49;78807.94;;;-3.47;94.36
13954;BME280;7049;49.444;8.522;2022-12-11T19:58:52;78803.78;;;-3.47;93.94
13954;BME280;7049;49.444;8.522;2022-12-11T20:03:55;78799.59;;;-3.47;94.15
13954;BME280;7049;49.444;8.522;2022-12-11T20:08:57;78799.59;;;-3.47;94.25
13954;BME280;7049;49.444;8.522;2022-12-11T20:14:00;78795.41;;;-3.47;94.02
13954;BME280;7049;49.444;8.522;2022-12-11T20:19:02;78799.59;;;-3.47;94.29
13954;BME280;7049;49.444;8.522;2022-12-11T20:24:04;78805.84;;;-3.47;93.98
13954;BME280;7049;49.444;8.522;2022-12-11T20:29:07;78801.69;;;-3.47;93.50
13954;BME280;7049;49.444;8.522;2022-12-11T20:34:09;78810.03;;;-3.47;92.86
13954;BME280;7049;49.444;8.522;2022-12-11T20:39:11;78812.13;;;-3.47;92.78
13954;BME280;7049;49.444;8.522;2022-12-11T20:44:15;78816.31;;;-3.47;92.78
13954;BME280;7049;49.444;8.522;2022-12-11T20:49:17;78810.03;;;-3.47;92.98
13954;BME280;7049;49.444;8.522;2022-12-11T20:54:18;78807.94;;;-3.47;92.28
13954;BME280;7049;49.444;8.522;2022-12-11T20:59:21;78807.94;;;-3.47;92.36
13954;BME280;7049;49.444;8.522;2022-12-11T21:04:23;78805.84;;;-3.47;92.36
13954;BME280;7049;49.444;8.522;2022-12-11T21:09:25;78799.59;;;-3.47;92.75
13954;BME280;7049;49.444;8.522;2022-12-11T21:14:29;78801.69;;;-3.47;92.73
13954;BME280;7049;49.444;8.522;2022-12-11T21:19:31;78797.50;;;-3.47;92.05
13954;BME280;7049;49.444;8.522;2022-12-11T21:24:33;78799.59;;;-3.47;91.73
13954;BME280;7049;49.444;8.522;2022-12-11T21:29:35;78814.22;;;-3.47;92.09
13954;BME280;7049;49.444;8.522;2022-12-11T21:34:37;78810.03;;;-3.47;92.07
13954;BME280;7049;49.444;8.522;2022-12-11T21:39:38;78814.22;;;-3.47;92.74
13954;BME280;7049;49.444;8.522;2022-12-11T21:44:41;78814.22;;;-3.47;93.00
13954;BME280;7049;49.444;8.522;2022-12-11T21:49:42;78818.41;;;-3.47;92.61
13954;BME280;7049;49.444;8.522;2022-12-11T21:54:44;78820.50;;;-3.47;92.88
13954;BME280;7049;49.444;8.522;2022-12-11T21:59:47;78830.97;;;-3.47;93.28
13954;BME280;7049;49.444;8.522;2022-12-11T22:04:48;78826.78;;;-3.47;93.09
13954;BME280;7049;49.444;8.522;2022-12-11T22:09:50;78822.59;;;-3.47;93.07
13954;BME280;7049;49.444;8.522;2022-12-11T22:14:52;78830.97;;;-3.47;93.41
13954;BME280;7049;49.444;8.522;2022-12-11T22:19:54;78826.78;;;-3.47;93.74
13954;BME280;7049;49.444;8.522;2022-12-11T22:24:55;78826.78;;;-3.47;94.00
13954;BME280;7049;49.444;8.522;2022-12-11T22:29:58;78828.88;;;-3.47;93.60
13954;BME280;7049;49.444;8.522;2022-12-11T22:35:00;78826.78;;;-3.47;93.53
13954;BME280;7049;49.444;8.522;2022-12-11T22:40:03;78835.16;;;-3.47;94.01
13954;BME280;7049;49.444;8.522;2022-12-11T22:45:07;78830.97;;;-3.47;93.68
13954;BME280;7049;49.444;8.522;2022-12-11T22:50:10;78835.16;;;-3.47;94.02
13954;BME280;7049;49.444;8.522;2022-12-11T22:55:12;78839.34;;;-3.47;94.27
13954;BME280;7049;49.444;8.522;2022-12-11T23:00:15;78830.97;;;-3.47;94.58
13954;BME280;7049;49.444;8.522;2022-12-11T23:05:17;78830.97;;;-3.47;94.70
13954;BME280;7049;49.444;8.522;2022-12-11T23:10:19;78824.69;;;-3.47;94.60
13954;BME280;7049;49.444;8.522;2022-12-11T23:15:21;78837.25;;;-3.47;94.65
13954;BME280;7049;49.444;8.522;2022-12-11T23:20:23;78826.78;;;-3.47;95.11
13954;BME280;7049;49.444;8.522;2022-12-11T23:25:25;78835.16;;;-3.47;95.33
13954;BME280;7049;49.444;8.522;2022-12-11T23:30:28;78839.34;;;-3.47;95.65
13954;BME280;7049;49.444;8.522;2022-12-11T23:35:30;78839.34;;;-3.47;95.84
13954;BME280;7049;49.444;8.522;2022-12-11T23:40:31;78839.34;;;-3.47;96.15
13954;BME280;7049;49.444;8.522;2022-12-11T23:45:34;78843.53;;;-3.47;96.46
13954;BME280;7049;49.444;8.522;2022-12-11T23:50:36;78839.34;;;-3.47;96.47
13954;BME280;7049;49.444;8.522;2022-12-11T23:55:38;78839.34;;;-3.47;96.50
